Time;durP1;ratioP1;P1;durP2;ratioP2;P2;SDS_P1;SDS_P2;PMS_P1;PMS_P2;Temp;Humidity;BMP_temperature;BMP_pressure;BME280_temperature;BME280_humidity;BME280_pressure;Samples;Min_cycle;Max_cycle;Signal;HPM_P1;HPM_P2
2021/08/02 00:00:26;;;;;;;3.97;2.33;;;16.20;99.90;;;;;;5061336;28;20032;-77
2021/08/02 00:03:30;;;;;;;3.05;1.70;;;16.20;99.90;;;;;;5035773;28;20076;-75
2021/08/02 00:05:58;;;;;;;1.42;1.33;;;16.10;99.90;;;;;;5043374;28;20132;-76
2021/08/02 00:08:27;;;;;;;5.18;1.95;;;16.10;99.90;;;;;;5045669;28;20427;-75
2021/08/02 00:10:58;;;;;;;4.75;1.60;;;16.20;99.90;;;;;;5058688;28;20033;-76
2021/08/02 00:13:33;;;;;;;1.98;1.33;;;16.30;99.90;;;;;;5070104;28;20089;-76
2021/08/02 00:16:05;;;;;;;1.50;1.40;;;16.20;99.90;;;;;;5070354;28;20044;-76
2021/08/02 00:18:31;;;;;;;1.88;1.50;;;16.20;99.90;;;;;;5069365;28;20027;-78
2021/08/02 00:21:05;;;;;;;2.38;1.50;;;16.20;99.90;;;;;;5066449;28;20033;-77
2021/08/02 00:23:30;;;;;;;2.28;1.77;;;16.10;99.90;;;;;;5069387;28;20021;-77
2021/08/02 00:26:02;;;;;;;1.98;1.58;;;16.20;99.90;;;;;;5048291;28;20507;-76
2021/08/02 00:28:29;;;;;;;2.03;1.65;;;16.20;99.90;;;;;;5042368;28;20020;-76
2021/08/02 00:30:55;;;;;;;3.00;1.50;;;16.10;99.90;;;;;;5068765;28;20053;-75
2021/08/02 00:33:21;;;;;;;3.10;1.70;;;16.10;99.90;;;;;;5066951;28;20083;-76
2021/08/02 00:35:55;;;;;;;3.25;1.60;;;16.10;99.90;;;;;;5065205;28;20029;-76
2021/08/02 00:38:28;;;;;;;3.00;1.67;;;16.10;99.90;;;;;;5068407;28;20048;-76
2021/08/02 00:41:09;;;;;;;2.42;1.63;;;16.20;99.90;;;;;;5067328;28;20025;-76
2021/08/02 00:44:23;;;;;;;1.42;1.33;;;16.10;99.90;;;;;;5066330;28;20067;-75
2021/08/02 00:46:58;;;;;;;2.72;1.70;;;16.10;99.90;;;;;;5066781;28;20039;-76
2021/08/02 00:49:26;;;;;;;1.67;1.50;;;16.10;99.90;;;;;;5066353;28;20029;-77
2021/08/02 00:51:54;;;;;;;1.88;1.52;;;16.10;99.90;;;;;;5069091;28;20036;-76
2021/08/02 00:54:22;;;;;;;3.22;1.83;;;16.10;99.90;;;;;;5071472;28;20515;-78
2021/08/02 00:56:54;;;;;;;2.55;1.52;;;16.00;99.90;;;;;;5071610;28;20018;-78
2021/08/02 00:59:20;;;;;;;3.50;1.75;;;16.10;99.90;;;;;;5069345;28;20036;-77
2021/08/02 01:01:46;;;;;;;5.93;2.20;;;16.10;99.90;;;;;;5068012;28;20025;-78
2021/08/02 01:04:13;;;;;;;3.45;1.60;;;16.10;99.90;;;;;;5058005;28;20036;-77
2021/08/02 01:06:39;;;;;;;4.47;1.42;;;16.10;99.90;;;;;;5047601;28;20044;-77
2021/08/02 01:09:06;;;;;;;2.22;1.33;;;16.10;99.90;;;;;;5057339;28;20029;-77
2021/08/02 01:11:34;;;;;;;3.10;1.63;;;16.00;99.90;;;;;;5056263;28;20028;-76
2021/08/02 01:14:03;;;;;;;2.50;1.67;;;16.00;99.90;;;;;;5055008;28;20017;-77
2021/08/02 01:16:30;;;;;;;4.22;1.50;;;16.00;99.90;;;;;;5040029;28;20511;-77
2021/08/02 01:18:57;;;;;;;2.35;1.60;;;16.00;99.90;;;;;;5030248;28;20017;-76
2021/08/02 01:21:25;;;;;;;7.60;2.80;;;16.00;99.90;;;;;;5055065;28;20021;-77
2021/08/02 01:23:51;;;;;;;1.63;1.40;;;16.00;99.90;;;;;;5055346;28;20029;-76
2021/08/02 01:26:41;;;;;;;2.95;1.60;;;16.00;99.90;;;;;;5076882;22;20041;-81
2021/08/02 01:29:45;;;;;;;1.58;1.48;;;16.00;99.90;;;;;;5048220;28;20061;-80
2021/08/02 01:32:10;;;;;;;2.10;1.90;;;16.00;99.90;;;;;;5028385;28;20026;-80
2021/08/02 01:34:36;;;;;;;1.95;1.77;;;16.20;99.90;;;;;;5027627;28;20041;-79
2021/08/02 01:37:02;;;;;;;3.20;2.38;;;16.20;99.90;;;;;;5034153;28;20029;-81
2021/08/02 01:39:28;;;;;;;1.77;1.38;;;16.10;99.90;;;;;;5030299;28;20065;-80
2021/08/02 01:41:53;;;;;;;1.90;1.70;;;16.10;99.90;;;;;;5037250;28;20017;-78
2021/08/02 01:44:19;;;;;;;2.10;1.60;;;16.10;99.90;;;;;;5058565;28;20025;-77
2021/08/02 01:47:02;;;;;;;1.52;1.42;;;16.10;99.90;;;;;;5056425;28;20064;-80
2021/08/02 01:49:37;;;;;;;2.53;1.60;;;16.20;99.90;;;;;;5056462;28;20005;-79
2021/08/02 01:52:05;;;;;;;3.58;1.95;;;16.10;99.90;;;;;;5048371;28;20029;-78
2021/08/02 01:54:55;;;;;;;4.40;1.60;;;16.10;99.90;;;;;;5043224;28;20022;-79
2021/08/02 01:57:30;;;;;;;2.65;1.33;;;16.10;99.90;;;;;;5050363;28;20077;-79
2021/08/02 02:00:01;;;;;;;3.00;1.60;;;16.30;99.90;;;;;;5036976;28;20030;-81
2021/08/02 02:02:32;;;;;;;2.38;1.73;;;16.30;99.90;;;;;;5031742;28;20029;-81
2021/08/02 02:05:05;;;;;;;1.73;1.60;;;16.20;99.90;;;;;;5043836;28;20040;-80
2021/08/02 02:07:41;;;;;;;2.03;1.70;;;16.20;99.90;;;;;;5031583;28;20030;-80
2021/08/02 02:10:09;;;;;;;3.03;1.50;;;16.10;99.90;;;;;;5029182;28;20038;-80
2021/08/02 02:12:36;;;;;;;3.50;2.15;;;16.10;99.90;;;;;;5028483;28;20090;-80
2021/08/02 02:15:02;;;;;;;3.25;1.75;;;16.10;99.90;;;;;;5036369;28;20030;-80
2021/08/02 02:17:28;;;;;;;3.78;1.63;;;16.10;99.90;;;;;;5029763;28;20026;-80
2021/08/02 02:19:56;;;;;;;1.73;1.63;;;16.10;99.90;;;;;;5011987;28;20089;-82
2021/08/02 02:22:25;;;;;;;3.08;1.70;;;16.00;99.90;;;;;;5018754;28;20045;-79
2021/08/02 02:24:53;;;;;;;4.53;1.85;;;16.00;99.90;;;;;;5023997;28;20041;-79
2021/08/02 02:27:19;;;;;;;1.77;1.67;;;15.90;99.90;;;;;;5043536;28;20042;-81
2021/08/02 02:29:46;;;;;;;3.08;2.25;;;15.90;99.90;;;;;;5022414;28;20022;-81
2021/08/02 02:32:12;;;;;;;3.97;1.85;;;15.90;99.90;;;;;;5016425;28;20053;-80
2021/08/02 02:34:39;;;;;;;3.08;2.47;;;16.00;99.90;;;;;;5036956;28;20060;-79
2021/08/02 02:37:06;;;;;;;2.53;1.88;;;16.00;99.90;;;;;;5023559;28;20097;-79
2021/08/02 02:39:32;;;;;;;1.75;1.63;;;15.90;99.90;;;;;;5022318;28;20045;-79
2021/08/02 02:42:00;;;;;;;1.92;1.60;;;15.90;99.90;;;;;;5021970;28;20037;-78
2021/08/02 02:44:26;;;;;;;3.13;1.40;;;15.80;99.90;;;;;;5022537;28;20037;-82
2021/08/02 02:46:54;;;;;;;4.60;1.60;;;15.80;99.90;;;;;;5040675;28;20026;-79
2021/08/02 02:49:21;;;;;;;1.38;1.27;;;15.90;99.90;;;;;;5031332;28;20060;-80
2021/08/02 02:51:49;;;;;;;3.58;1.92;;;16.10;99.90;;;;;;5036785;28;20057;-83
2021/08/02 02:54:16;;;;;;;2.55;1.73;;;16.10;99.90;;;;;;5020132;28;20075;-79
2021/08/02 02:56:41;;;;;;;4.72;2.00;;;16.00;99.90;;;;;;5039836;28;20025;-80
2021/08/02 02:59:07;;;;;;;2.78;2.38;;;16.00;99.90;;;;;;5033571;28;20041;-80
2021/08/02 03:01:43;;;;;;;1.50;1.40;;;15.90;99.90;;;;;;5035729;28;20033;-79
2021/08/02 03:04:10;;;;;;;7.40;2.05;;;15.60;99.90;;;;;;5031384;28;20108;-81
2021/08/02 03:06:37;;;;;;;2.88;2.10;;;15.50;99.90;;;;;;5036255;28;20025;-81
2021/08/02 03:09:04;;;;;;;5.32;2.20;;;15.40;99.90;;;;;;5033478;28;20029;-80
2021/08/02 03:11:31;;;;;;;3.38;1.75;;;15.40;99.90;;;;;;5036239;28;20057;-80
2021/08/02 03:13:56;;;;;;;3.25;2.10;;;15.30;99.90;;;;;;5040569;28;20021;-80
2021/08/02 03:16:25;;;;;;;6.28;1.75;;;15.30;99.90;;;;;;5045227;28;20064;-79
2021/08/02 03:18:51;;;;;;;3.92;1.90;;;15.30;99.90;;;;;;5039524;28;20022;-82
2021/08/02 03:21:18;;;;;;;4.50;1.80;;;15.30;99.90;;;;;;5034528;28;20034;-80
2021/08/02 03:24:02;;;;;;;6.25;2.25;;;15.30;99.90;;;;;;5026264;28;20026;-81
2021/08/02 03:26:33;;;;;;;4.88;1.75;;;15.30;99.90;;;;;;5015907;28;20032;-80
2021/08/02 03:29:26;;;;;;;2.72;1.95;;;15.30;99.90;;;;;;5030304;28;20025;-78
2021/08/02 03:31:58;;;;;;;3.50;1.63;;;15.40;99.90;;;;;;5034978;28;20021;-79
2021/08/02 03:34:28;;;;;;;2.53;1.73;;;15.40;99.90;;;;;;5030970;28;20482;-80
2021/08/02 03:36:56;;;;;;;2.95;1.35;;;15.50;99.90;;;;;;5038847;28;20024;-80
2021/08/02 03:39:23;;;;;;;13.85;2.30;;;15.50;99.90;;;;;;5043570;28;20025;-79
2021/08/02 03:41:50;;;;;;;2.92;1.98;;;15.50;99.90;;;;;;5034974;28;20053;-84
2021/08/02 03:44:17;;;;;;;4.38;1.90;;;15.50;99.90;;;;;;5031868;28;20033;-78
2021/08/02 03:46:43;;;;;;;5.68;1.88;;;15.50;99.90;;;;;;5037321;28;20030;-78
2021/08/02 03:49:09;;;;;;;5.13;1.85;;;15.40;99.90;;;;;;5037537;28;20108;-80
2021/08/02 03:51:46;;;;;;;3.55;1.73;;;15.50;99.90;;;;;;5028204;28;20033;-80
2021/08/02 03:54:12;;;;;;;2.65;2.35;;;15.50;99.90;;;;;;5032050;28;20026;-80
2021/08/02 03:56:39;;;;;;;3.58;2.13;;;15.50;99.90;;;;;;5025146;28;20026;-79
2021/08/02 03:59:05;;;;;;;4.13;2.13;;;15.60;99.90;;;;;;5037701;28;20048;-81
2021/08/02 04:01:39;;;;;;;3.03;2.10;;;15.60;99.90;;;;;;5013789;28;20030;-80
2021/08/02 04:04:05;;;;;;;7.15;2.10;;;15.70;99.90;;;;;;5028983;28;20029;-79
2021/08/02 04:06:30;;;;;;;4.43;1.88;;;15.60;99.90;;;;;;5019177;28;20423;-80
2021/08/02 04:08:56;;;;;;;3.88;1.73;;;15.60;99.90;;;;;;5038862;28;20058;-80
2021/08/02 04:11:22;;;;;;;5.53;1.88;;;15.60;99.90;;;;;;5023007;28;20037;-80
2021/08/02 04:13:47;;;;;;;7.78;2.47;;;15.60;99.90;;;;;;5040443;28;20021;-80
2021/08/02 04:16:13;;;;;;;8.02;2.17;;;15.60;99.90;;;;;;5036969;28;20086;-79
2021/08/02 04:18:38;;;;;;;3.03;2.28;;;15.60;99.90;;;;;;5033046;28;20018;-81
2021/08/02 04:21:04;;;;;;;5.60;2.17;;;15.60;99.90;;;;;;5051262;28;20045;-77
2021/08/02 04:23:30;;;;;;;4.65;2.33;;;15.60;99.90;;;;;;5055616;28;20025;-80
2021/08/02 04:25:55;;;;;;;4.22;1.95;;;15.70;99.90;;;;;;5039502;28;20020;-78
2021/08/02 04:28:21;;;;;;;6.57;2.35;;;15.90;99.90;;;;;;5038490;28;20038;-77
2021/08/02 04:30:47;;;;;;;5.78;2.78;;;16.10;99.90;;;;;;5040783;28;20037;-80
2021/08/02 04:33:12;;;;;;;7.90;2.40;;;16.20;99.90;;;;;;5059091;28;20025;-78
2021/08/02 04:35:40;;;;;;;5.90;1.90;;;16.20;99.90;;;;;;5049926;28;20026;-78
2021/08/02 04:38:06;;;;;;;4.22;1.90;;;16.20;99.90;;;;;;5043003;28;20022;-79
2021/08/02 04:40:32;;;;;;;5.00;2.03;;;16.30;99.90;;;;;;5024416;28;20041;-78
2021/08/02 04:42:57;;;;;;;5.30;1.67;;;16.30;99.90;;;;;;5057468;28;20033;-80
2021/08/02 04:45:23;;;;;;;6.53;2.08;;;16.10;99.90;;;;;;5044688;28;20576;-81
2021/08/02 04:47:50;;;;;;;3.78;1.85;;;16.10;99.90;;;;;;5049307;28;20026;-81
2021/08/02 04:50:17;;;;;;;13.35;2.15;;;16.20;99.90;;;;;;5050397;28;20404;-80
2021/08/02 04:52:43;;;;;;;4.60;1.90;;;16.30;99.90;;;;;;5049085;28;20030;-81
2021/08/02 04:55:09;;;;;;;5.72;1.73;;;16.10;99.90;;;;;;5039106;28;20049;-80
2021/08/02 04:57:35;;;;;;;5.15;2.55;;;16.00;99.90;;;;;;5044590;28;20022;-79
2021/08/02 05:00:01;;;;;;;3.25;2.38;;;16.00;99.90;;;;;;5042677;28;20099;-80
2021/08/02 05:02:26;;;;;;;2.97;2.00;;;16.00;99.90;;;;;;5054810;28;20022;-80
2021/08/02 05:04:52;;;;;;;5.50;2.03;;;16.00;99.90;;;;;;5034585;28;20034;-80
2021/08/02 05:07:18;;;;;;;2.00;1.90;;;16.10;99.90;;;;;;5030434;28;20030;-79
2021/08/02 05:09:43;;;;;;;2.72;2.00;;;16.10;99.90;;;;;;5030342;28;20064;-81
2021/08/02 05:12:10;;;;;;;5.65;2.30;;;16.10;99.90;;;;;;5041849;28;20059;-80
2021/08/02 05:14:36;;;;;;;1.65;1.50;;;16.00;99.90;;;;;;5041479;28;20236;-81
2021/08/02 05:17:01;;;;;;;3.13;1.85;;;16.10;99.90;;;;;;5038003;28;20042;-81
2021/08/02 05:19:27;;;;;;;2.35;1.50;;;16.20;99.90;;;;;;5029994;28;20029;-80
2021/08/02 05:21:53;;;;;;;3.60;1.83;;;16.20;99.90;;;;;;5048874;28;20017;-78
2021/08/02 05:24:18;;;;;;;5.55;2.38;;;16.20;99.90;;;;;;5039739;28;20030;-79
2021/08/02 05:26:44;;;;;;;5.15;2.50;;;16.20;99.90;;;;;;5032586;28;20041;-81
2021/08/02 05:29:09;;;;;;;4.30;2.33;;;16.10;99.90;;;;;;5028335;28;20064;-80
2021/08/02 05:31:35;;;;;;;6.55;3.05;;;16.10;99.90;;;;;;5035618;28;20112;-79
2021/08/02 05:34:01;;;;;;;3.90;1.90;;;16.10;99.90;;;;;;5040417;28;20026;-80
2021/08/02 05:36:27;;;;;;;4.22;1.63;;;16.10;99.90;;;;;;5040770;28;20049;-81
2021/08/02 05:38:53;;;;;;;3.90;1.70;;;16.20;99.90;;;;;;5045704;28;20021;-81
2021/08/02 05:41:18;;;;;;;2.10;1.55;;;16.20;99.90;;;;;;5045652;28;20049;-81
2021/08/02 05:43:44;;;;;;;3.15;2.75;;;16.30;99.90;;;;;;5042825;28;20460;-81
2021/08/02 05:46:10;;;;;;;1.98;1.83;;;16.30;99.90;;;;;;5031505;28;20037;-82
2021/08/02 05:48:35;;;;;;;2.05;1.42;;;16.40;99.90;;;;;;5029797;28;20053;-81
2021/08/02 05:51:01;;;;;;;2.08;1.60;;;16.40;99.90;;;;;;5029725;28;20021;-80
2021/08/02 05:53:26;;;;;;;1.65;1.52;;;16.40;99.90;;;;;;5036113;28;20022;-81
2021/08/02 05:55:52;;;;;;;3.05;1.65;;;16.50;99.90;;;;;;5027823;28;20030;-82
2021/08/02 05:58:18;;;;;;;3.10;1.73;;;16.50;99.90;;;;;;5027017;28;20029;-80
2021/08/02 06:00:43;;;;;;;2.80;1.60;;;16.50;99.90;;;;;;5037133;28;20029;-80
2021/08/02 06:03:09;;;;;;;4.35;1.67;;;16.50;99.90;;;;;;5047803;28;20033;-80
2021/08/02 06:05:34;;;;;;;2.35;1.30;;;16.60;99.90;;;;;;5049420;28;20033;-80
2021/08/02 06:08:00;;;;;;;2.70;1.65;;;16.60;99.90;;;;;;5039537;28;20033;-80
2021/08/02 06:10:25;;;;;;;1.65;1.23;;;16.60;99.90;;;;;;5029568;28;20038;-79
2021/08/02 06:12:51;;;;;;;3.60;2.00;;;16.60;99.90;;;;;;5045341;28;20032;-78
2021/08/02 06:15:17;;;;;;;2.20;2.00;;;16.70;99.90;;;;;;5046725;28;20081;-78
2021/08/02 06:17:43;;;;;;;4.38;1.42;;;16.70;99.90;;;;;;5055937;28;20021;-78
2021/08/02 06:20:09;;;;;;;2.10;1.20;;;16.80;99.90;;;;;;5040529;28;20097;-81
2021/08/02 06:22:35;;;;;;;3.50;1.30;;;17.00;99.90;;;;;;5040230;28;20037;-78
2021/08/02 06:25:01;;;;;;;3.35;1.23;;;17.00;99.90;;;;;;5043363;28;20009;-79
2021/08/02 06:27:30;;;;;;;2.22;1.42;;;17.00;99.90;;;;;;5038718;28;20034;-78
2021/08/02 06:29:57;;;;;;;5.10;1.73;;;17.10;99.90;;;;;;5034965;28;20033;-81
2021/08/02 06:32:24;;;;;;;8.25;1.58;;;17.20;99.90;;;;;;5039726;28;20022;-81
2021/08/02 06:34:49;;;;;;;3.10;1.65;;;17.20;99.90;;;;;;5037854;28;20022;-80
2021/08/02 06:37:15;;;;;;;5.30;1.50;;;17.20;99.90;;;;;;5033547;28;20057;-81
2021/08/02 06:39:40;;;;;;;1.95;1.30;;;17.20;99.90;;;;;;5033728;28;20048;-80
2021/08/02 06:42:06;;;;;;;1.90;1.02;;;17.30;99.90;;;;;;5030085;28;20053;-81
2021/08/02 06:44:32;;;;;;;3.88;2.08;;;17.30;99.90;;;;;;5046085;28;20072;-81
2021/08/02 06:46:57;;;;;;;4.57;3.60;;;17.30;99.90;;;;;;5050218;28;20030;-79
2021/08/02 06:49:23;;;;;;;2.70;1.30;;;17.40;99.90;;;;;;5045685;28;20018;-80
2021/08/02 06:51:48;;;;;;;3.83;1.65;;;17.50;99.90;;;;;;5022943;28;20022;-79
2021/08/02 06:54:14;;;;;;;3.33;1.35;;;17.60;99.90;;;;;;5030938;28;20026;-78
2021/08/02 06:56:41;;;;;;;2.35;1.20;;;17.70;99.90;;;;;;5006988;28;20029;-80
2021/08/02 06:59:06;;;;;;;3.50;1.50;;;17.80;99.90;;;;;;5030550;28;20026;-78
2021/08/02 07:01:32;;;;;;;2.85;1.23;;;17.70;99.90;;;;;;5025920;28;20045;-73
2021/08/02 07:03:57;;;;;;;1.63;1.20;;;17.90;99.90;;;;;;5032927;28;20454;-73
2021/08/02 07:06:23;;;;;;;5.82;1.40;;;18.00;99.90;;;;;;5025796;28;20480;-73
2021/08/02 07:08:48;;;;;;;2.92;1.30;;;18.10;99.90;;;;;;5020628;28;20413;-73
2021/08/02 07:11:14;;;;;;;2.42;1.52;;;18.20;99.90;;;;;;5025063;28;20080;-71
2021/08/02 07:13:39;;;;;;;2.10;1.27;;;18.30;99.90;;;;;;5019784;28;20025;-75
2021/08/02 07:16:05;;;;;;;1.45;1.00;;;18.30;99.90;;;;;;5023367;28;20025;-74
2021/08/02 07:18:32;;;;;;;4.10;2.55;;;18.50;99.90;;;;;;5026218;28;20025;-71
2021/08/02 07:20:58;;;;;;;1.40;1.30;;;18.60;99.90;;;;;;5005781;28;20490;-72
2021/08/02 07:23:23;;;;;;;2.22;1.00;;;18.70;99.90;;;;;;5013936;28;20030;-73
2021/08/02 07:25:49;;;;;;;2.15;1.30;;;18.80;99.90;;;;;;5030747;28;20123;-73
2021/08/02 07:28:14;;;;;;;1.42;1.00;;;18.80;99.90;;;;;;5061321;22;20115;-72
2021/08/02 07:30:40;;;;;;;2.38;1.10;;;18.90;99.90;;;;;;5017558;28;20116;-71
2021/08/02 07:33:06;;;;;;;1.83;1.10;;;19.00;99.90;;;;;;5048894;28;20044;-71
2021/08/02 07:35:31;;;;;;;2.97;1.20;;;19.10;99.90;;;;;;5047508;28;20025;-70
2021/08/02 07:37:57;;;;;;;3.38;1.02;;;19.20;99.90;;;;;;5050917;28;20502;-71
2021/08/02 07:40:23;;;;;;;2.42;1.20;;;19.30;99.90;;;;;;5051299;28;20204;-70
2021/08/02 07:42:49;;;;;;;1.50;0.93;;;19.20;99.90;;;;;;5035781;28;20039;-73
2021/08/02 07:45:14;;;;;;;4.38;2.38;;;19.10;99.90;;;;;;5033907;28;20787;-71
2021/08/02 07:47:40;;;;;;;3.45;0.80;;;19.20;99.90;;;;;;5038971;28;20025;-71
2021/08/02 07:50:07;;;;;;;1.20;0.85;;;19.30;99.90;;;;;;5049518;28;20041;-70
2021/08/02 07:52:33;;;;;;;2.95;1.40;;;19.50;99.90;;;;;;5048077;28;20481;-71
2021/08/02 07:54:59;;;;;;;1.02;0.80;;;19.70;99.90;;;;;;5037374;28;20033;-70
2021/08/02 07:57:25;;;;;;;2.05;1.10;;;19.50;99.90;;;;;;5038009;28;20025;-73
2021/08/02 07:59:51;;;;;;;2.22;1.00;;;19.70;99.90;;;;;;5040829;28;20156;-71
2021/08/02 08:02:16;;;;;;;2.15;0.93;;;20.00;99.90;;;;;;5018961;28;20522;-71
2021/08/02 08:04:42;;;;;;;2.35;0.80;;;20.10;99.90;;;;;;5039807;28;20452;-73
2021/08/02 08:07:07;;;;;;;2.08;0.80;;;20.20;99.90;;;;;;5048973;28;20033;-71
2021/08/02 08:09:34;;;;;;;3.47;1.10;;;20.40;99.90;;;;;;5036956;28;20485;-71
2021/08/02 08:11:59;;;;;;;3.85;1.30;;;20.60;99.90;;;;;;5037371;28;20056;-71
2021/08/02 08:14:25;;;;;;;1.83;0.90;;;20.80;99.90;;;;;;5049116;28;20496;-71
2021/08/02 08:16:51;;;;;;;1.52;0.88;;;21.20;99.90;;;;;;5054449;28;20028;-70
2021/08/02 08:19:16;;;;;;;3.83;0.93;;;21.50;99.90;;;;;;5055699;28;20035;-72
2021/08/02 08:21:42;;;;;;;3.42;0.80;;;21.30;99.90;;;;;;5044237;28;20045;-72
2021/08/02 08:24:08;;;;;;;2.22;0.98;;;21.50;99.90;;;;;;5044464;28;20033;-69
2021/08/02 08:26:37;;;;;;;1.10;1.00;;;21.60;99.90;;;;;;5054419;28;20021;-73
2021/08/02 08:29:04;;;;;;;1.40;0.80;;;21.70;99.90;;;;;;5019664;28;20704;-70
2021/08/02 08:31:30;;;;;;;2.28;1.20;;;21.60;99.90;;;;;;5035704;28;20025;-70
2021/08/02 08:33:56;;;;;;;1.73;0.70;;;21.70;99.90;;;;;;5036015;28;20425;-70
2021/08/02 08:36:22;;;;;;;0.93;0.77;;;21.70;99.90;;;;;;5037648;28;20052;-71
2021/08/02 08:38:48;;;;;;;1.17;0.88;;;21.80;99.90;;;;;;5042166;28;20453;-73
2021/08/02 08:41:18;;;;;;;2.45;1.00;;;21.80;99.90;;;;;;5030647;28;20031;-73
2021/08/02 08:43:43;;;;;;;3.13;0.82;;;21.80;99.90;;;;;;5022156;28;20524;-73
2021/08/02 08:46:09;;;;;;;1.48;0.70;;;21.60;99.90;;;;;;5026029;28;20037;-73
2021/08/02 08:48:35;;;;;;;2.88;0.98;;;21.90;99.90;;;;;;5021058;28;20053;-74
2021/08/02 08:51:03;;;;;;;2.05;1.08;;;22.00;99.90;;;;;;5021237;28;20030;-73
2021/08/02 08:53:29;;;;;;;3.50;0.90;;;22.10;99.90;;;;;;5031783;28;20021;-74
2021/08/02 08:55:54;;;;;;;3.20;0.80;;;22.00;99.90;;;;;;5038694;28;20025;-74
2021/08/02 08:58:20;;;;;;;3.63;0.90;;;21.80;99.90;;;;;;5027048;28;20024;-73
2021/08/02 09:00:46;;;;;;;1.08;0.80;;;21.90;99.90;;;;;;5028581;28;20029;-73
2021/08/02 09:03:16;;;;;;;2.08;0.90;;;21.80;99.90;;;;;;5041177;28;20033;-73
2021/08/02 09:05:42;;;;;;;3.07;1.83;;;21.70;99.90;;;;;;5038100;28;20073;-74
2021/08/02 09:08:13;;;;;;;1.00;0.90;;;21.70;99.90;;;;;;5040005;28;20776;-73
2021/08/02 09:10:39;;;;;;;1.27;0.63;;;21.80;99.90;;;;;;5041977;28;20500;-73
2021/08/02 09:13:06;;;;;;;1.08;0.90;;;22.00;99.90;;;;;;5019186;28;20492;-72
2021/08/02 09:15:33;;;;;;;1.50;1.10;;;21.90;99.90;;;;;;5035928;28;20018;-72
2021/08/02 09:17:59;;;;;;;3.45;1.00;;;22.00;99.90;;;;;;5037997;28;20052;-73
2021/08/02 09:20:25;;;;;;;1.60;0.90;;;22.00;99.90;;;;;;5017986;28;20022;-73
2021/08/02 09:22:53;;;;;;;1.65;0.60;;;22.20;99.90;;;;;;5044931;28;20130;-74
2021/08/02 09:25:24;;;;;;;0.70;0.65;;;22.30;99.90;;;;;;5036935;28;20040;-73
2021/08/02 09:27:51;;;;;;;3.35;1.27;;;22.20;99.90;;;;;;5035517;28;20112;-74
2021/08/02 09:30:21;;;;;;;1.38;0.80;;;22.40;99.90;;;;;;5036970;28;20021;-73
2021/08/02 09:33:03;;;;;;;2.28;0.80;;;22.20;99.90;;;;;;5037235;28;20029;-73
2021/08/02 09:35:33;;;;;;;1.50;0.82;;;22.30;99.90;;;;;;5037722;28;20040;-74
2021/08/02 09:38:03;;;;;;;1.08;0.85;;;22.50;99.90;;;;;;5037777;28;20021;-73
2021/08/02 09:40:37;;;;;;;1.10;0.95;;;22.60;99.90;;;;;;5021497;28;20099;-74
2021/08/02 09:43:02;;;;;;;1.10;1.00;;;22.50;99.90;;;;;;5016568;28;20106;-73
2021/08/02 09:45:48;;;;;;;1.48;1.00;;;22.90;99.90;;;;;;5039654;28;20492;-74
2021/08/02 09:48:14;;;;;;;1.48;1.15;;;23.40;99.90;;;;;;5039420;28;20029;-75
2021/08/02 09:50:44;;;;;;;2.33;0.75;;;23.70;99.90;;;;;;5044512;28;20040;-73
2021/08/02 09:53:15;;;;;;;1.25;1.15;;;23.40;99.00;;;;;;5045591;28;20071;-73
2021/08/02 09:55:43;;;;;;;1.10;0.80;;;23.10;99.20;;;;;;5042787;28;20060;-73
2021/08/02 09:58:10;;;;;;;1.05;0.60;;;22.90;99.90;;;;;;5048800;28;20033;-74
2021/08/02 10:00:39;;;;;;;1.70;1.60;;;23.10;99.90;;;;;;5036737;28;20021;-73
2021/08/02 10:03:05;;;;;;;0.70;0.60;;;23.00;99.90;;;;;;5034482;28;20481;-74
2021/08/02 10:05:31;;;;;;;1.60;0.90;;;22.60;99.80;;;;;;5037689;28;20021;-75
2021/08/02 10:07:58;;;;;;;2.53;0.95;;;22.30;99.90;;;;;;5039318;28;20077;-75
2021/08/02 10:10:24;;;;;;;1.50;0.73;;;22.10;99.90;;;;;;5052101;28;20036;-76
2021/08/02 10:12:51;;;;;;;0.80;0.80;;;21.90;99.90;;;;;;5052443;28;20040;-74
2021/08/02 10:15:19;;;;;;;1.58;1.15;;;21.70;99.90;;;;;;5040883;28;20029;-75
2021/08/02 10:17:50;;;;;;;1.20;0.63;;;21.80;99.90;;;;;;5045266;28;20105;-74
2021/08/02 10:20:27;;;;;;;1.85;1.00;;;21.60;99.90;;;;;;5034606;28;20112;-75
2021/08/02 10:22:55;;;;;;;3.63;0.90;;;21.70;99.90;;;;;;5040781;28;20531;-74
2021/08/02 10:25:32;;;;;;;1.20;1.00;;;21.40;99.90;;;;;;5040849;28;20029;-74
2021/08/02 10:28:09;;;;;;;0.75;0.75;;;21.40;99.90;;;;;;5048220;28;20042;-75
2021/08/02 10:30:35;;;;;;;1.15;0.75;;;21.60;99.90;;;;;;5033350;28;20025;-75
2021/08/02 10:33:01;;;;;;;1.00;0.75;;;21.70;99.90;;;;;;5039495;28;20417;-75
2021/08/02 10:35:45;;;;;;;1.13;0.77;;;21.10;99.90;;;;;;5038243;28;20090;-74
2021/08/02 10:38:17;;;;;;;1.40;1.23;;;20.80;99.90;;;;;;5050627;28;20084;-73
2021/08/02 10:40:47;;;;;;;0.75;0.65;;;21.00;99.90;;;;;;5028747;28;20033;-75
2021/08/02 10:43:24;;;;;;;1.48;0.93;;;20.90;99.90;;;;;;5024221;28;20033;-75
2021/08/02 10:45:51;;;;;;;1.23;1.13;;;21.20;99.90;;;;;;5040704;28;20036;-75
2021/08/02 10:48:25;;;;;;;1.52;0.73;;;21.00;99.90;;;;;;5038116;28;20106;-75
2021/08/02 10:50:51;;;;;;;1.88;0.70;;;20.60;99.90;;;;;;5044914;28;20028;-75
2021/08/02 10:53:20;;;;;;;1.80;1.13;;;20.50;99.90;;;;;;5037609;28;20033;-76
2021/08/02 10:55:49;;;;;;;1.83;0.95;;;20.50;99.90;;;;;;5040725;28;20030;-76
2021/08/02 10:58:32;;;;;;;3.30;1.35;;;20.50;99.90;;;;;;5038550;28;20026;-75
2021/08/02 11:01:03;;;;;;;4.00;1.42;;;20.30;99.90;;;;;;5044852;28;20021;-76
2021/08/02 11:03:36;;;;;;;4.80;2.70;;;19.80;99.90;;;;;;5042604;28;20021;-75
2021/08/02 11:06:09;;;;;;;5.80;3.05;;;19.50;99.90;;;;;;5028483;28;20040;-74
2021/08/02 11:08:44;;;;;;;3.83;1.42;;;19.20;99.90;;;;;;5049599;28;20085;-75
2021/08/02 11:11:17;;;;;;;1.80;1.20;;;19.10;99.90;;;;;;5043514;28;20032;-76
2021/08/02 11:13:42;;;;;;;5.75;1.42;;;19.20;99.90;;;;;;5040410;28;20473;-75
2021/08/02 11:16:09;;;;;;;1.27;1.00;;;19.00;99.90;;;;;;5044854;28;20121;-76
2021/08/02 11:18:35;;;;;;;1.88;1.27;;;18.80;99.90;;;;;;5039936;28;20025;-75
2021/08/02 11:21:00;;;;;;;1.52;1.40;;;18.60;99.90;;;;;;5044653;28;20495;-75
2021/08/02 11:23:34;;;;;;;1.48;1.08;;;18.60;99.90;;;;;;5017722;28;20044;-75
2021/08/02 11:26:06;;;;;;;1.63;1.05;;;18.50;99.90;;;;;;5044966;28;20017;-74
2021/08/02 11:28:46;;;;;;;1.33;1.02;;;18.40;99.90;;;;;;5045824;28;20040;-76
2021/08/02 11:31:13;;;;;;;3.13;1.63;;;18.30;99.90;;;;;;5024247;28;20426;-74
2021/08/02 11:33:41;;;;;;;3.72;2.85;;;18.50;99.90;;;;;;5045346;28;20054;-73
2021/08/02 11:36:20;;;;;;;3.78;1.30;;;18.80;99.90;;;;;;5049054;28;20021;-74
2021/08/02 11:38:47;;;;;;;0.85;0.77;;;19.00;99.90;;;;;;5024195;28;20522;-74
2021/08/02 11:41:29;;;;;;;2.17;1.13;;;19.30;99.90;;;;;;5053608;28;20025;-75
2021/08/02 11:43:58;;;;;;;1.77;1.10;;;19.40;99.90;;;;;;5046431;28;20108;-75
2021/08/02 11:46:24;;;;;;;2.30;1.30;;;19.30;99.90;;;;;;5050768;28;20025;-74
2021/08/02 11:48:50;;;;;;;3.03;1.42;;;19.50;99.90;;;;;;5037998;28;20037;-76
2021/08/02 11:51:18;;;;;;;1.65;1.33;;;19.50;99.90;;;;;;5049317;28;20026;-76
2021/08/02 11:53:44;;;;;;;2.38;1.38;;;19.40;99.90;;;;;;5033981;28;20022;-75
2021/08/02 11:56:10;;;;;;;1.05;0.88;;;19.20;99.90;;;;;;5031093;28;20036;-76
2021/08/02 11:58:46;;;;;;;4.65;2.28;;;19.00;99.90;;;;;;5034081;28;20397;-75
2021/08/02 12:01:13;;;;;;;4.63;3.38;;;19.00;99.90;;;;;;5047154;28;20059;-73
2021/08/02 12:03:43;;;;;;;6.30;5.63;;;18.80;99.90;;;;;;5039587;28;20136;-75
2021/08/02 12:06:09;;;;;;;4.55;3.15;;;18.90;99.90;;;;;;5037639;28;20507;-74
2021/08/02 12:08:35;;;;;;;3.15;2.40;;;18.80;99.90;;;;;;5045190;28;20033;-74
2021/08/02 12:11:04;;;;;;;2.75;1.52;;;18.80;99.90;;;;;;5042310;28;20030;-75
2021/08/02 12:13:39;;;;;;;1.65;1.13;;;19.00;99.90;;;;;;5037067;28;20030;-74
2021/08/02 12:16:05;;;;;;;2.08;1.13;;;19.10;99.90;;;;;;5034503;28;20021;-76
2021/08/02 12:18:31;;;;;;;1.33;1.13;;;19.00;99.90;;;;;;5032798;28;20100;-75
2021/08/02 12:21:10;;;;;;;2.58;1.23;;;19.10;99.90;;;;;;5036296;28;20087;-75
2021/08/02 12:23:36;;;;;;;1.80;1.50;;;19.10;99.90;;;;;;5045572;28;20381;-74
2021/08/02 12:26:12;;;;;;;2.70;1.73;;;19.20;99.90;;;;;;5040704;28;20032;-75
2021/08/02 12:28:42;;;;;;;1.33;1.10;;;19.00;99.90;;;;;;5042524;28;20098;-75
2021/08/02 12:31:13;;;;;;;2.75;1.30;;;18.90;99.90;;;;;;5032744;28;20056;-74
2021/08/02 12:33:39;;;;;;;1.60;1.13;;;18.80;99.90;;;;;;5041319;28;20025;-75
2021/08/02 12:36:04;;;;;;;1.10;0.90;;;18.80;99.90;;;;;;5039766;28;20036;-75
2021/08/02 12:38:30;;;;;;;2.35;1.45;;;18.80;99.90;;;;;;5044379;28;20444;-75
2021/08/02 12:41:05;;;;;;;7.30;3.95;;;18.80;99.90;;;;;;5038229;28;20038;-75
2021/08/02 12:43:31;;;;;;;4.65;3.78;;;19.30;99.90;;;;;;5040034;28;20021;-75
2021/08/02 12:45:56;;;;;;;3.80;3.22;;;19.60;99.90;;;;;;5031725;28;20082;-76
2021/08/02 12:48:22;;;;;;;2.83;1.85;;;20.00;99.90;;;;;;5035357;28;20045;-76
2021/08/02 12:50:47;;;;;;;2.35;1.00;;;20.30;99.90;;;;;;5039269;28;20029;-75
2021/08/02 12:53:13;;;;;;;1.55;0.98;;;20.80;99.90;;;;;;5046343;28;20029;-76